createdAt,value
2022-12-18T00:01:29.371Z,40.42
2022-12-18T00:03:57.916Z,39.92
2022-12-18T00:06:29.394Z,39.75
2022-12-18T00:08:58.914Z,38.25
2022-12-18T00:11:29.472Z,40.20
2022-12-18T00:13:59.441Z,41.88
2022-12-18T00:16:29.084Z,38.13
2022-12-18T00:18:58.882Z,41.85
2022-12-18T00:21:29.248Z,38.70
2022-12-18T00:23:56.987Z,38.95
2022-12-18T00:26:26.632Z,38.50
2022-12-18T00:28:56.562Z,37.22
2022-12-18T00:31:26.313Z,37.92
2022-12-18T00:33:55.773Z,38.42
2022-12-18T00:36:33.137Z,36.05
2022-12-18T00:39:05.334Z,39.20
2022-12-18T00:41:51.414Z,38.83
2022-12-18T00:44:20.656Z,37.90
2022-12-18T00:46:49.518Z,38.72
2022-12-18T00:49:18.748Z,34.75
2022-12-18T00:51:49.403Z,37.50
2022-12-18T00:54:17.992Z,37.85
2022-12-18T00:56:49.285Z,39.50
2022-12-18T00:59:18.681Z,37.17
2022-12-18T01:01:47.142Z,36.88
2022-12-18T01:04:15.911Z,37.40
2022-12-18T01:06:43.573Z,34.08
2022-12-18T01:09:14.109Z,40.90
2022-12-18T01:11:42.119Z,38.20
2022-12-18T01:14:09.936Z,36.90
2022-12-18T01:16:37.679Z,35.75
2022-12-18T01:19:05.357Z,37.67
2022-12-18T01:21:33.065Z,32.78
2022-12-18T01:24:00.785Z,35.97
2022-12-18T01:26:30.857Z,37.50
2022-12-18T01:28:59.171Z,35.35
2022-12-18T01:31:28.611Z,35.08
2022-12-18T01:33:57.763Z,36.00
2022-12-18T01:36:27.443Z,36.25
2022-12-18T01:38:56.723Z,35.33
2022-12-18T01:41:26.723Z,35.80
2022-12-18T01:43:58.252Z,35.80
2022-12-18T01:46:29.002Z,34.97
2022-12-18T01:49:00.117Z,35.08
2022-12-18T01:51:29.404Z,37.47
2022-12-18T01:53:58.971Z,36.28
2022-12-18T01:56:26.727Z,35.65
2022-12-18T01:59:02.798Z,38.28
2022-12-18T02:01:32.435Z,35.65
2022-12-18T02:04:21.940Z,36.47
2022-12-18T02:06:57.309Z,33.58
2022-12-18T02:09:32.511Z,34.92
2022-12-18T02:12:08.656Z,34.85
2022-12-18T02:14:42.345Z,35.65
2022-12-18T02:17:18.717Z,35.30
2022-12-18T02:19:57.595Z,34.05
2022-12-18T02:22:37.392Z,34.90
2022-12-18T02:25:18.376Z,34.55
2022-12-18T02:27:50.935Z,34.45
2022-12-18T02:30:20.041Z,34.38
2022-12-18T02:32:51.761Z,34.33
2022-12-18T02:35:24.111Z,33.53
2022-12-18T02:37:52.954Z,34.88
2022-12-18T02:40:23.483Z,33.75
2022-12-18T02:42:52.603Z,32.30
2022-12-18T02:45:20.396Z,32.55
2022-12-18T02:47:50.193Z,31.73
2022-12-18T02:50:24.895Z,30.60
2022-12-18T02:53:05.573Z,31.65
2022-12-18T02:55:46.583Z,33.78
2022-12-18T02:58:19.687Z,30.63
2022-12-18T03:00:59.931Z,33.03
2022-12-18T03:03:32.275Z,31.38
2022-12-18T03:06:03.804Z,32.88
2022-12-18T03:08:35.227Z,30.38
2022-12-18T03:11:05.865Z,32.88
2022-12-18T03:13:39.601Z,30.95
2022-12-18T03:16:11.385Z,33.17
2022-12-18T03:18:44.538Z,33.25
2022-12-18T03:21:15.693Z,33.70
2022-12-18T03:23:49.637Z,35.47
2022-12-18T03:26:20.560Z,33.00
2022-12-18T03:28:53.140Z,32.08
2022-12-18T03:31:24.418Z,28.27
2022-12-18T03:33:54.558Z,30.60
2022-12-18T03:36:22.544Z,27.90
2022-12-18T03:38:50.193Z,27.92
2022-12-18T03:41:24.822Z,27.00
2022-12-18T03:43:59.267Z,27.33
2022-12-18T03:46:31.755Z,26.10
2022-12-18T03:49:10.521Z,26.15
2022-12-18T03:51:44.721Z,26.77
2022-12-18T03:54:14.315Z,24.55
2022-12-18T03:56:50.187Z,25.48
2022-12-18T03:59:21.622Z,27.20
2022-12-18T04:01:52.688Z,25.10
2022-12-18T04:04:22.089Z,24.90
2022-12-18T04:06:51.656Z,27.10
2022-12-18T04:09:20.404Z,26.40
2022-12-18T04:11:48.935Z,26.13
2022-12-18T04:14:18.257Z,25.80
2022-12-18T04:16:47.664Z,27.15
2022-12-18T04:19:15.425Z,26.23
2022-12-18T04:21:43.436Z,25.95
2022-12-18T04:24:11.093Z,25.60
2022-12-18T04:26:39.255Z,26.85
2022-12-18T04:29:06.890Z,26.85
2022-12-18T04:31:34.538Z,31.25
2022-12-18T04:34:04.372Z,28.27
2022-12-18T04:36:31.998Z,27.05
2022-12-18T04:39:00.493Z,27.80
2022-12-18T04:41:28.144Z,25.40
2022-12-18T04:43:55.832Z,29.13
2022-12-18T04:46:23.536Z,28.50
2022-12-18T04:48:51.267Z,25.65
2022-12-18T04:51:26.145Z,25.35
2022-12-18T04:53:54.353Z,27.38
2022-12-18T04:56:22.376Z,24.83
2022-12-18T04:58:50.013Z,26.80
2022-12-18T05:01:19.445Z,26.80
2022-12-18T05:03:47.434Z,26.05
2022-12-18T05:06:15.761Z,26.98
2022-12-18T05:08:44.868Z,26.92
2022-12-18T05:11:17.026Z,29.45
2022-12-18T05:13:46.202Z,27.60
2022-12-18T05:16:15.515Z,27.73
2022-12-18T05:18:43.556Z,26.70
2022-12-18T05:21:11.232Z,26.90
2022-12-18T05:23:39.318Z,28.55
2022-12-18T05:26:09.343Z,28.52
2022-12-18T05:28:38.408Z,27.17
2022-12-18T05:31:07.145Z,27.30
2022-12-18T05:33:36.782Z,26.42
2022-12-18T05:36:06.829Z,27.25
2022-12-18T05:38:36.110Z,29.10
2022-12-18T05:41:04.443Z,29.00
2022-12-18T05:43:33.610Z,27.48
2022-12-18T05:46:06.096Z,27.42
2022-12-18T05:48:33.882Z,28.00
2022-12-18T05:51:07.945Z,28.17
2022-12-18T05:53:36.038Z,27.10
2022-12-18T05:56:06.539Z,27.05
2022-12-18T05:58:35.789Z,27.65
2022-12-18T06:01:10.017Z,29.35
2022-12-18T06:03:38.022Z,26.58
2022-12-18T06:06:06.441Z,28.73
2022-12-18T06:08:34.065Z,26.88
2022-12-18T06:11:01.699Z,28.02
2022-12-18T06:13:29.314Z,26.23
2022-12-18T06:15:58.409Z,26.98
2022-12-18T06:18:26.073Z,25.77
2022-12-18T06:20:57.775Z,28.10
2022-12-18T06:23:25.473Z,27.27
2022-12-18T06:25:53.382Z,27.73
2022-12-18T06:28:21.117Z,27.45
2022-12-18T06:30:50.209Z,26.75
2022-12-18T06:33:19.510Z,27.58
2022-12-18T06:35:47.103Z,26.88
2022-12-18T06:38:14.984Z,26.52
2022-12-18T06:40:42.582Z,26.95
2022-12-18T06:43:10.437Z,27.00
2022-12-18T06:45:38.229Z,25.83
2022-12-18T06:48:05.958Z,29.17
2022-12-18T06:50:34.998Z,26.88
2022-12-18T06:53:02.606Z,24.23
2022-12-18T06:55:30.486Z,27.65
2022-12-18T06:57:58.524Z,26.00
2022-12-18T07:00:26.182Z,28.05
2022-12-18T07:02:54.048Z,26.08
2022-12-18T07:05:21.839Z,26.70
2022-12-18T07:07:50.875Z,27.33
2022-12-18T07:10:18.589Z,27.58
2022-12-18T07:12:46.300Z,25.27
2022-12-18T07:15:14.218Z,24.17
2022-12-18T07:17:42.056Z,26.05
2022-12-18T07:20:11.296Z,27.77
2022-12-18T07:22:38.976Z,24.98
2022-12-18T07:25:09.972Z,24.52
2022-12-18T07:27:37.681Z,27.38
2022-12-18T07:30:06.565Z,26.35
2022-12-18T07:32:34.277Z,26.58
2022-12-18T07:35:01.985Z,25.45
2022-12-18T07:37:29.746Z,26.83
2022-12-18T07:39:57.873Z,24.60
2022-12-18T07:42:32.900Z,28.48
2022-12-18T07:45:01.085Z,25.23
2022-12-18T07:47:28.732Z,27.52
2022-12-18T07:49:57.167Z,28.67
2022-12-18T07:52:26.341Z,26.88
2022-12-18T07:54:54.118Z,27.60
2022-12-18T07:57:48.869Z,28.88
2022-12-18T08:00:13.219Z,24.90
2022-12-18T08:02:41.101Z,26.60
2022-12-18T08:05:10.674Z,24.42
2022-12-18T08:07:38.386Z,27.50
2022-12-18T08:10:06.896Z,27.77
2022-12-18T08:12:34.585Z,26.60
2022-12-18T08:15:02.743Z,27.38
2022-12-18T08:17:31.939Z,27.73
2022-12-18T08:19:59.785Z,26.30
2022-12-18T08:22:27.715Z,26.08
2022-12-18T08:24:55.778Z,27.52
2022-12-18T08:27:30.644Z,26.80
2022-12-18T08:29:58.373Z,26.50
2022-12-18T08:32:26.714Z,25.70
2022-12-18T08:34:55.813Z,28.95
2022-12-18T08:37:23.442Z,30.25
2022-12-18T08:39:51.133Z,26.75
2022-12-18T08:42:36.344Z,28.65
2022-12-18T08:45:04.641Z,26.92
2022-12-18T08:47:32.524Z,28.20
2022-12-18T08:50:01.724Z,27.75
2022-12-18T08:52:29.410Z,27.30
2022-12-18T08:54:57.077Z,28.40
2022-12-18T08:57:24.789Z,28.80
2022-12-18T08:59:52.513Z,32.08
2022-12-18T09:02:20.612Z,28.42
2022-12-18T09:04:55.419Z,29.45
2022-12-18T09:07:26.356Z,28.77
2022-12-18T09:09:53.983Z,28.00
2022-12-18T09:12:21.716Z,28.17
2022-12-18T09:14:49.365Z,29.77
2022-12-18T09:17:17.272Z,30.65
2022-12-18T09:19:45.325Z,27.98
2022-12-18T09:22:12.953Z,27.83
2022-12-18T09:24:42.017Z,28.02
2022-12-18T09:27:09.908Z,27.85
2022-12-18T09:29:37.833Z,28.77
2022-12-18T09:32:06.136Z,29.75
2022-12-18T09:34:33.861Z,30.25
2022-12-18T09:37:01.551Z,30.42
2022-12-18T09:39:29.327Z,31.13
2022-12-18T09:42:00.429Z,29.80
2022-12-18T09:44:31.212Z,29.10
2022-12-18T09:47:10.536Z,32.63
2022-12-18T09:49:43.634Z,31.30
2022-12-18T09:52:16.535Z,30.17
2022-12-18T09:54:47.793Z,27.20
2022-12-18T09:57:20.992Z,29.90
2022-12-18T09:59:53.955Z,26.92
2022-12-18T10:02:24.842Z,27.70
2022-12-18T10:05:03.931Z,29.27
2022-12-18T10:07:40.525Z,26.77
2022-12-18T10:10:16.220Z,25.75
2022-12-18T10:12:59.522Z,27.13
2022-12-18T10:15:37.222Z,25.00
2022-12-18T10:18:21.736Z,22.95
2022-12-18T10:20:53.168Z,23.08
2022-12-18T10:23:27.992Z,24.15
2022-12-18T10:26:03.191Z,23.08
2022-12-18T10:28:34.691Z,21.67
2022-12-18T10:31:02.433Z,22.23
2022-12-18T10:33:32.726Z,21.58
2022-12-18T10:36:01.159Z,21.50
2022-12-18T10:38:31.040Z,20.33
2022-12-18T10:41:00.948Z,22.10
2022-12-18T10:43:31.540Z,19.90
2022-12-18T10:46:24.442Z,19.30
2022-12-18T10:48:57.118Z,19.05
2022-12-18T10:51:30.313Z,19.80
2022-12-18T10:54:02.970Z,19.80
2022-12-18T10:56:35.375Z,18.33
2022-12-18T10:59:06.037Z,20.20
2022-12-18T11:01:49.588Z,19.65
2022-12-18T11:04:20.948Z,18.70
2022-12-18T11:06:57.491Z,18.80
2022-12-18T11:09:26.961Z,19.23
2022-12-18T11:11:56.502Z,18.38
2022-12-18T11:14:26.610Z,18.20
2022-12-18T11:19:45.892Z,17.83
2022-12-18T11:22:22.858Z,17.65
2022-12-18T11:25:29.995Z,19.50
2022-12-18T11:27:51.022Z,18.75
2022-12-18T11:30:25.683Z,19.85
2022-12-18T11:32:58.480Z,20.55
2022-12-18T11:35:37.515Z,20.45
2022-12-18T11:38:25.306Z,19.90
2022-12-18T11:40:58.948Z,22.75
2022-12-18T11:43:31.831Z,24.55
2022-12-18T11:46:05.788Z,25.83
2022-12-18T11:48:43.493Z,23.20
2022-12-18T11:51:16.794Z,22.95
2022-12-18T11:53:44.589Z,23.40
2022-12-18T11:56:30.076Z,23.60
2022-12-18T11:59:10.649Z,22.15
2022-12-18T12:01:51.137Z,24.20
2022-12-18T12:04:43.082Z,21.88
2022-12-18T12:07:28.514Z,22.48
2022-12-18T12:10:06.096Z,24.63
2022-12-18T12:12:49.279Z,22.77
2022-12-18T12:15:28.234Z,22.20
2022-12-18T12:18:06.845Z,23.17
2022-12-18T12:20:49.494Z,25.58
2022-12-18T12:23:27.819Z,23.20
2022-12-18T12:26:04.124Z,23.05
2022-12-18T12:28:46.948Z,25.65
2022-12-18T12:31:24.957Z,22.92
2022-12-18T12:34:02.999Z,23.42
2022-12-18T12:36:42.635Z,21.08
2022-12-18T12:39:15.861Z,24.75
2022-12-18T12:42:04.851Z,24.98
2022-12-18T12:44:37.708Z,23.85
2022-12-18T12:47:21.965Z,22.02
2022-12-18T12:49:51.622Z,23.45
2022-12-18T12:52:30.371Z,23.23
2022-12-18T12:54:59.547Z,23.25
2022-12-18T12:57:35.843Z,23.30
2022-12-18T13:00:07.691Z,23.42
2022-12-18T13:02:41.404Z,21.65
2022-12-18T13:05:21.503Z,21.67
2022-12-18T13:07:55.871Z,23.35
2022-12-18T13:10:29.126Z,21.63
2022-12-18T13:12:57.853Z,24.60
2022-12-18T13:15:30.471Z,19.67
2022-12-18T13:18:13.742Z,21.02
2022-12-18T13:20:49.188Z,22.25
2022-12-18T13:23:30.431Z,22.25
2022-12-18T13:25:59.381Z,20.67
2022-12-18T13:28:52.899Z,20.67
2022-12-18T13:32:05.182Z,24.73
2022-12-18T13:34:34.252Z,24.70
2022-12-18T13:37:39.227Z,22.52
2022-12-18T13:40:42.320Z,20.92
2022-12-18T13:43:27.414Z,19.88
2022-12-18T13:46:04.461Z,22.48
2022-12-18T13:48:35.600Z,22.15
2022-12-18T13:51:07.111Z,21.20
2022-12-18T13:53:44.348Z,22.10
2022-12-18T13:56:18.018Z,22.45
2022-12-18T13:58:45.722Z,22.60
2022-12-18T14:01:24.299Z,20.83
2022-12-18T14:03:52.241Z,23.98
2022-12-18T14:06:19.963Z,23.75
2022-12-18T14:08:48.884Z,22.73
2022-12-18T14:11:24.894Z,22.92
2022-12-18T14:13:54.588Z,23.75
2022-12-18T14:16:22.296Z,22.77
2022-12-18T14:18:55.537Z,23.98
2022-12-18T14:21:33.004Z,24.58
2022-12-18T14:24:14.593Z,24.13
2022-12-18T14:26:44.710Z,26.00
2022-12-18T14:29:25.136Z,25.13
2022-12-18T14:32:16.943Z,26.52
2022-12-18T14:34:46.226Z,23.63
2022-12-18T14:37:15.474Z,25.63
2022-12-18T14:39:54.568Z,24.98
2022-12-18T14:42:23.788Z,27.98
2022-12-18T14:45:12.924Z,26.90
2022-12-18T14:47:39.437Z,25.67
2022-12-18T14:50:15.684Z,29.33
2022-12-18T14:52:43.537Z,28.25
2022-12-18T14:55:17.814Z,27.77
2022-12-18T14:57:48.079Z,29.30
2022-12-18T15:00:19.692Z,29.48
2022-12-18T15:02:49.451Z,28.42
2022-12-18T15:05:22.062Z,30.10
2022-12-18T15:07:52.411Z,29.02
2022-12-18T15:10:22.272Z,28.13
2022-12-18T15:12:53.035Z,29.75
2022-12-18T15:15:50.002Z,30.90
2022-12-18T15:18:21.709Z,31.75
2022-12-18T15:20:51.755Z,27.33
2022-12-18T15:23:22.545Z,31.50
2022-12-18T15:25:56.439Z,30.33
2022-12-18T15:28:28.700Z,31.35
2022-12-18T15:31:07.642Z,31.25
2022-12-18T15:33:38.136Z,31.92
2022-12-18T15:36:10.249Z,33.63
2022-12-18T15:38:38.407Z,32.03
2022-12-18T15:41:14.597Z,31.65
2022-12-18T15:43:43.489Z,29.33
2022-12-18T15:46:15.032Z,30.20
2022-12-18T15:48:44.677Z,29.33
2022-12-18T15:51:17.310Z,32.50
2022-12-18T15:53:45.943Z,31.13
2022-12-18T15:56:32.878Z,29.27
2022-12-18T15:59:03.388Z,42.72
2022-12-18T16:01:35.145Z,32.00
2022-12-18T16:04:06.123Z,31.65
2022-12-18T16:06:51.040Z,31.52
2022-12-18T16:09:26.040Z,32.03
2022-12-18T16:11:54.156Z,29.80
2022-12-18T16:14:24.757Z,28.48
2022-12-18T16:16:54.977Z,28.80
2022-12-18T16:19:23.353Z,28.38
2022-12-18T16:21:54.923Z,28.25
2022-12-18T16:24:24.978Z,30.67
2022-12-18T16:26:53.456Z,28.63
2022-12-18T16:29:28.331Z,26.63
2022-12-18T16:31:56.417Z,26.42
2022-12-18T16:34:28.799Z,26.08
2022-12-18T16:37:03.134Z,28.38
2022-12-18T16:39:34.852Z,29.65
2022-12-18T16:42:05.683Z,28.42
2022-12-18T16:44:35.691Z,28.95
2022-12-18T16:47:03.957Z,30.65
2022-12-18T16:49:31.932Z,33.35
2022-12-18T16:51:59.684Z,32.35
2022-12-18T16:54:30.417Z,31.58
2022-12-18T16:56:58.751Z,27.15
2022-12-18T16:59:27.360Z,29.95
2022-12-18T17:01:57.471Z,32.33
2022-12-18T17:04:25.296Z,31.75
2022-12-18T17:06:53.813Z,32.00
2022-12-18T17:09:24.735Z,29.98
2022-12-18T17:11:52.992Z,27.40
2022-12-18T17:14:24.476Z,29.85
2022-12-18T17:17:19.324Z,34.17
2022-12-18T17:19:41.123Z,29.08
2022-12-18T17:22:09.385Z,30.13
2022-12-18T17:24:37.374Z,31.23
2022-12-18T17:27:05.828Z,32.33
2022-12-18T17:29:33.460Z,31.77
2022-12-18T17:32:01.148Z,32.42
2022-12-18T17:34:29.047Z,30.52
2022-12-18T17:36:59.210Z,28.77
2022-12-18T17:39:28.678Z,30.42
2022-12-18T17:41:56.827Z,28.60
2022-12-18T17:44:24.458Z,30.77
2022-12-18T17:46:52.172Z,29.08
2022-12-18T17:49:19.963Z,26.95
2022-12-18T17:51:47.591Z,28.20
2022-12-18T17:54:16.769Z,27.08
2022-12-18T17:56:44.409Z,27.75
2022-12-18T17:59:12.756Z,28.42
2022-12-18T18:01:44.467Z,28.55
2022-12-18T18:04:13.341Z,26.02
2022-12-18T18:06:41.127Z,28.58
2022-12-18T18:09:16.685Z,24.65
2022-12-18T18:12:04.464Z,24.65
2022-12-18T18:14:32.571Z,24.60
2022-12-18T18:17:03.910Z,25.38
2022-12-18T18:19:33.993Z,25.95
2022-12-18T18:22:02.998Z,28.67
2022-12-18T18:24:31.873Z,24.35
2022-12-18T18:27:00.983Z,24.05
2022-12-18T18:29:30.255Z,24.77
2022-12-18T18:31:58.409Z,24.17
2022-12-18T18:34:28.155Z,25.33
2022-12-18T18:36:55.948Z,25.88
2022-12-18T18:39:23.773Z,23.67
2022-12-18T18:41:51.444Z,28.88
2022-12-18T18:44:22.846Z,27.75
2022-12-18T18:46:55.119Z,26.02
2022-12-18T18:49:24.454Z,24.80
2022-12-18T18:51:52.303Z,27.92
2022-12-18T18:54:20.816Z,26.70
2022-12-18T18:59:39.509Z,26.95
2022-12-18T19:02:08.053Z,26.02
2022-12-18T19:04:38.461Z,26.55
2022-12-18T19:07:13.632Z,27.25
2022-12-18T19:09:45.361Z,25.77
2022-12-18T19:12:33.538Z,30.35
2022-12-18T19:15:04.123Z,30.63
2022-12-18T19:17:31.982Z,30.60
2022-12-18T19:19:59.639Z,29.13
2022-12-18T19:22:27.328Z,27.98
2022-12-18T19:24:54.968Z,28.50
2022-12-18T19:27:22.741Z,25.95
2022-12-18T19:29:50.631Z,26.08
2022-12-18T19:32:19.768Z,26.17
2022-12-18T19:34:48.067Z,25.98
2022-12-18T19:37:16.340Z,29.95
2022-12-18T19:39:44.033Z,28.85
2022-12-18T19:42:11.776Z,25.80
2022-12-18T19:44:39.443Z,27.00
2022-12-18T19:47:07.107Z,27.48
2022-12-18T19:49:37.053Z,26.77
2022-12-18T19:52:04.742Z,28.20
2022-12-18T19:54:32.621Z,25.95
2022-12-18T19:57:00.354Z,24.35
2022-12-18T19:59:28.049Z,26.58
2022-12-18T20:01:55.887Z,27.35
2022-12-18T20:04:28.791Z,26.27
2022-12-18T20:06:57.962Z,28.45
2022-12-18T20:09:25.766Z,27.42
2022-12-18T20:11:54.286Z,26.90
2022-12-18T20:14:23.369Z,28.33
2022-12-18T20:16:51.996Z,27.65
2022-12-18T20:19:20.352Z,26.98
2022-12-18T20:21:48.441Z,27.38
2022-12-18T20:24:17.681Z,28.13
2022-12-18T20:26:45.459Z,28.98
2022-12-18T20:29:13.299Z,27.35
2022-12-18T20:31:42.282Z,27.75
2022-12-18T20:34:10.054Z,26.63
2022-12-18T20:36:38.637Z,27.95
2022-12-18T20:39:09.881Z,26.55
2022-12-18T20:41:40.338Z,28.55
2022-12-18T20:44:21.425Z,28.23
2022-12-18T20:46:51.638Z,28.95
2022-12-18T20:49:19.603Z,27.83
2022-12-18T20:51:47.687Z,26.45
2022-12-18T20:54:15.403Z,26.15
2022-12-18T20:56:44.481Z,30.30
2022-12-18T20:59:12.338Z,28.15
2022-12-18T21:01:40.846Z,26.95
2022-12-18T21:04:18.031Z,27.60
2022-12-18T21:06:51.402Z,26.02
2022-12-18T21:09:21.319Z,26.50
2022-12-18T21:12:08.962Z,25.45
2022-12-18T21:14:40.071Z,24.13
2022-12-18T21:17:07.894Z,24.55
2022-12-18T21:19:35.772Z,27.73
2022-12-18T21:22:03.949Z,25.70
2022-12-18T21:24:32.782Z,27.45
2022-12-18T21:27:03.632Z,26.95
2022-12-18T21:29:31.432Z,27.80
2022-12-18T21:31:59.162Z,25.35
2022-12-18T21:34:29.409Z,26.88
2022-12-18T21:36:58.772Z,26.77
2022-12-18T21:39:27.337Z,28.35
2022-12-18T21:42:13.270Z,27.15
2022-12-18T21:44:42.603Z,25.35
2022-12-18T21:47:23.065Z,28.15
2022-12-18T21:49:51.951Z,29.25
2022-12-18T21:52:20.471Z,29.00
2022-12-18T21:54:53.435Z,27.05
2022-12-18T21:57:21.154Z,29.67
2022-12-18T21:59:50.514Z,28.90
2022-12-18T22:02:21.037Z,29.80
2022-12-18T22:04:49.233Z,28.05
2022-12-18T22:07:17.872Z,27.80
2022-12-18T22:09:45.485Z,27.50
2022-12-18T22:12:34.837Z,26.40
2022-12-18T22:15:05.007Z,27.35
2022-12-18T22:17:32.807Z,25.10
2022-12-18T22:20:00.464Z,24.65
2022-12-18T22:22:28.330Z,25.15
2022-12-18T22:24:56.026Z,27.40
2022-12-18T22:27:23.775Z,26.95
2022-12-18T22:30:05.733Z,28.17
2022-12-18T22:32:36.353Z,24.95
2022-12-18T22:35:11.597Z,26.20
2022-12-18T22:37:41.916Z,25.05
2022-12-18T22:40:23.679Z,27.75
2022-12-18T22:42:51.737Z,24.63
2022-12-18T22:45:20.790Z,27.30
2022-12-18T22:47:49.813Z,24.85
2022-12-18T22:50:17.598Z,28.38
2022-12-18T22:52:45.223Z,27.25
2022-12-18T22:55:12.864Z,24.70
2022-12-18T22:57:40.652Z,26.63
2022-12-18T23:00:13.495Z,25.92
2022-12-18T23:02:41.362Z,26.85
2022-12-18T23:05:10.788Z,25.90
2022-12-18T23:07:38.483Z,27.55
2022-12-18T23:10:07.380Z,26.58
2022-12-18T23:12:37.482Z,27.17
2022-12-18T23:15:06.810Z,24.63
2022-12-18T23:17:34.402Z,24.23
2022-12-18T23:20:02.792Z,24.65
2022-12-18T23:22:32.195Z,24.27
2022-12-18T23:25:00.182Z,22.83
2022-12-18T23:27:27.789Z,25.02
2022-12-18T23:29:55.733Z,25.55
2022-12-18T23:32:26.413Z,27.05
2022-12-18T23:34:54.572Z,25.55
2022-12-18T23:37:42.329Z,25.88
2022-12-18T23:40:12.292Z,28.15
2022-12-18T23:42:40.058Z,26.48
2022-12-18T23:45:17.734Z,24.13
2022-12-18T23:47:47.015Z,26.17
2022-12-18T23:50:18.630Z,26.08
2022-12-18T23:52:46.341Z,25.30
2022-12-18T23:55:15.382Z,26.92
2022-12-18T23:57:43.061Z,26.17
